sensor_id;sensor_type;location;lat;lon;timestamp;temperature;humidity
76239;SHT30;65043;48.392;-4.472;2024-01-06T00:00:28;10.02;72.49
76239;SHT30;65043;48.392;-4.472;2024-01-06T00:02:53;10.04;72.63
76239;SHT30;65043;48.392;-4.472;2024-01-06T00:05:19;10.02;72.29
76239;SHT30;65043;48.392;-4.472;2024-01-06T00:07:44;10.02;72.34
76239;SHT30;65043;48.392;-4.472;2024-01-06T00:10:10;10.02;72.08
76239;SHT30;65043;48.392;-4.472;2024-01-06T00:12:35;9.99;72.13
76239;SHT30;65043;48.392;-4.472;2024-01-06T00:15:01;10.04;71.38
76239;SHT30;65043;48.392;-4.472;2024-01-06T00:17:26;10.02;71.72
76239;SHT30;65043;48.392;-4.472;2024-01-06T00:19:52;10.02;71.52
76239;SHT30;65043;48.392;-4.472;2024-01-06T00:22:18;10.01;71.37
76239;SHT30;65043;48.392;-4.472;2024-01-06T00:24:46;10.01;71.56
76239;SHT30;65043;48.392;-4.472;2024-01-06T00:27:11;10.01;71.69
76239;SHT30;65043;48.392;-4.472;2024-01-06T00:29:37;10.02;71.27
76239;SHT30;65043;48.392;-4.472;2024-01-06T00:32:03;9.98;71.37
76239;SHT30;65043;48.392;-4.472;2024-01-06T00:34:28;10.02;71.49
76239;SHT30;65043;48.392;-4.472;2024-01-06T00:36:53;9.99;71.33
76239;SHT30;65043;48.392;-4.472;2024-01-06T00:39:20;9.99;71.73
76239;SHT30;65043;48.392;-4.472;2024-01-06T00:41:45;10.01;71.43
76239;SHT30;65043;48.392;-4.472;2024-01-06T00:44:11;9.97;71.59
76239;SHT30;65043;48.392;-4.472;2024-01-06T00:46:37;10.01;71.34
76239;SHT30;65043;48.392;-4.472;2024-01-06T00:49:03;9.99;71.52
76239;SHT30;65043;48.392;-4.472;2024-01-06T00:51:29;9.99;71.70
76239;SHT30;65043;48.392;-4.472;2024-01-06T00:53:54;10.02;71.95
76239;SHT30;65043;48.392;-4.472;2024-01-06T00:56:20;10.04;72.10
76239;SHT30;65043;48.392;-4.472;2024-01-06T00:58:48;10.01;71.75
76239;SHT30;65043;48.392;-4.472;2024-01-06T01:01:13;10.01;71.91
76239;SHT30;65043;48.392;-4.472;2024-01-06T01:03:39;9.99;72.03
76239;SHT30;65043;48.392;-4.472;2024-01-06T01:06:04;9.98;72.20
76239;SHT30;65043;48.392;-4.472;2024-01-06T01:08:30;10.02;72.14
76239;SHT30;65043;48.392;-4.472;2024-01-06T01:10:56;9.99;72.16
76239;SHT30;65043;48.392;-4.472;2024-01-06T01:13:22;9.99;72.27
76239;SHT30;65043;48.392;-4.472;2024-01-06T01:15:48;9.97;72.23
76239;SHT30;65043;48.392;-4.472;2024-01-06T01:18:13;10.01;71.52
76239;SHT30;65043;48.392;-4.472;2024-01-06T01:20:39;9.98;71.44
76239;SHT30;65043;48.392;-4.472;2024-01-06T01:23:07;9.97;71.41
76239;SHT30;65043;48.392;-4.472;2024-01-06T01:25:33;9.94;71.45
76239;SHT30;65043;48.392;-4.472;2024-01-06T01:27:58;9.99;70.88
76239;SHT30;65043;48.392;-4.472;2024-01-06T01:30:24;9.95;70.78
76239;SHT30;65043;48.392;-4.472;2024-01-06T01:32:49;9.97;70.84
76239;SHT30;65043;48.392;-4.472;2024-01-06T01:35:14;9.97;70.91
76239;SHT30;65043;48.392;-4.472;2024-01-06T01:37:40;9.98;70.89
76239;SHT30;65043;48.392;-4.472;2024-01-06T01:40:06;9.94;70.43
76239;SHT30;65043;48.392;-4.472;2024-01-06T01:42:34;9.94;70.49
76239;SHT30;65043;48.392;-4.472;2024-01-06T01:44:59;9.94;71.01
76239;SHT30;65043;48.392;-4.472;2024-01-06T01:47:26;9.90;70.51
76239;SHT30;65043;48.392;-4.472;2024-01-06T01:49:54;9.91;70.73
76239;SHT30;65043;48.392;-4.472;2024-01-06T01:52:20;9.94;71.11
76239;SHT30;65043;48.392;-4.472;2024-01-06T01:54:46;9.93;70.34
76239;SHT30;65043;48.392;-4.472;2024-01-06T01:57:13;9.90;70.52
76239;SHT30;65043;48.392;-4.472;2024-01-06T01:59:39;9.97;70.65
76239;SHT30;65043;48.392;-4.472;2024-01-06T02:02:06;9.97;70.80
76239;SHT30;65043;48.392;-4.472;2024-01-06T02:04:34;9.93;70.24
76239;SHT30;65043;48.392;-4.472;2024-01-06T02:07:00;9.91;70.72
76239;SHT30;65043;48.392;-4.472;2024-01-06T02:09:26;9.94;70.58
76239;SHT30;65043;48.392;-4.472;2024-01-06T02:11:56;9.95;70.48
76239;SHT30;65043;48.392;-4.472;2024-01-06T02:14:21;9.88;70.60
76239;SHT30;65043;48.392;-4.472;2024-01-06T02:16:47;9.93;70.74
76239;SHT30;65043;48.392;-4.472;2024-01-06T02:19:13;9.91;70.55
76239;SHT30;65043;48.392;-4.472;2024-01-06T02:21:42;9.90;70.82
76239;SHT30;65043;48.392;-4.472;2024-01-06T02:24:09;9.88;70.69
76239;SHT30;65043;48.392;-4.472;2024-01-06T02:26:34;9.90;70.97
76239;SHT30;65043;48.392;-4.472;2024-01-06T02:29:00;9.88;70.81
76239;SHT30;65043;48.392;-4.472;2024-01-06T02:31:28;9.88;71.26
76239;SHT30;65043;48.392;-4.472;2024-01-06T02:33:53;9.90;71.13
76239;SHT30;65043;48.392;-4.472;2024-01-06T02:36:19;9.87;71.32
76239;SHT30;65043;48.392;-4.472;2024-01-06T02:38:44;9.88;71.63
76239;SHT30;65043;48.392;-4.472;2024-01-06T02:41:10;9.88;71.63
76239;SHT30;65043;48.392;-4.472;2024-01-06T02:43:35;9.90;71.75
76239;SHT30;65043;48.392;-4.472;2024-01-06T02:46:01;9.90;71.78
76239;SHT30;65043;48.392;-4.472;2024-01-06T02:48:26;9.90;71.76
76239;SHT30;65043;48.392;-4.472;2024-01-06T02:50:52;9.91;71.90
76239;SHT30;65043;48.392;-4.472;2024-01-06T02:53:17;9.91;71.60
76239;SHT30;65043;48.392;-4.472;2024-01-06T02:55:43;9.90;71.67
76239;SHT30;65043;48.392;-4.472;2024-01-06T02:58:08;9.93;71.85
76239;SHT30;65043;48.392;-4.472;2024-01-06T03:00:34;9.94;71.58
76239;SHT30;65043;48.392;-4.472;2024-01-06T03:02:59;9.94;71.74
76239;SHT30;65043;48.392;-4.472;2024-01-06T03:05:25;9.93;71.44
76239;SHT30;65043;48.392;-4.472;2024-01-06T03:07:50;9.94;71.59
76239;SHT30;65043;48.392;-4.472;2024-01-06T03:10:16;9.95;71.42
76239;SHT30;65043;48.392;-4.472;2024-01-06T03:12:41;9.94;71.65
76239;SHT30;65043;48.392;-4.472;2024-01-06T03:15:08;9.93;71.54
76239;SHT30;65043;48.392;-4.472;2024-01-06T03:17:35;9.95;71.53
76239;SHT30;65043;48.392;-4.472;2024-01-06T03:20:04;9.98;71.80
76239;SHT30;65043;48.392;-4.472;2024-01-06T03:22:29;9.95;71.90
76239;SHT30;65043;48.392;-4.472;2024-01-06T03:24:55;9.94;72.00
76239;SHT30;65043;48.392;-4.472;2024-01-06T03:27:20;9.97;72.19
76239;SHT30;65043;48.392;-4.472;2024-01-06T03:29:46;9.95;72.14
76239;SHT30;65043;48.392;-4.472;2024-01-06T03:32:12;9.93;72.26
76239;SHT30;65043;48.392;-4.472;2024-01-06T03:34:37;9.93;72.52
76239;SHT30;65043;48.392;-4.472;2024-01-06T03:37:03;9.90;72.60
76239;SHT30;65043;48.392;-4.472;2024-01-06T03:39:28;9.88;72.38
76239;SHT30;65043;48.392;-4.472;2024-01-06T03:41:54;9.85;72.34
76239;SHT30;65043;48.392;-4.472;2024-01-06T03:44:19;9.87;72.69
76239;SHT30;65043;48.392;-4.472;2024-01-06T03:46:46;9.84;72.68
76239;SHT30;65043;48.392;-4.472;2024-01-06T03:49:11;9.83;72.43
76239;SHT30;65043;48.392;-4.472;2024-01-06T03:51:36;9.81;72.64
76239;SHT30;65043;48.392;-4.472;2024-01-06T03:54:02;9.78;72.66
76239;SHT30;65043;48.392;-4.472;2024-01-06T03:56:27;9.83;72.74
76239;SHT30;65043;48.392;-4.472;2024-01-06T03:58:53;9.80;72.59
76239;SHT30;65043;48.392;-4.472;2024-01-06T04:01:19;9.81;72.38
76239;SHT30;65043;48.392;-4.472;2024-01-06T04:03:45;9.80;72.09
76239;SHT30;65043;48.392;-4.472;2024-01-06T04:06:10;9.80;72.57
76239;SHT30;65043;48.392;-4.472;2024-01-06T04:08:36;9.74;72.38
76239;SHT30;65043;48.392;-4.472;2024-01-06T04:11:01;9.75;72.50
76239;SHT30;65043;48.392;-4.472;2024-01-06T04:13:27;9.71;72.52
76239;SHT30;65043;48.392;-4.472;2024-01-06T04:15:53;9.70;72.79
76239;SHT30;65043;48.392;-4.472;2024-01-06T04:18:19;9.70;73.05
76239;SHT30;65043;48.392;-4.472;2024-01-06T04:20:44;9.67;73.13
76239;SHT30;65043;48.392;-4.472;2024-01-06T04:23:10;9.69;73.15
76239;SHT30;65043;48.392;-4.472;2024-01-06T04:25:35;9.73;72.91
76239;SHT30;65043;48.392;-4.472;2024-01-06T04:28:01;9.73;73.11
76239;SHT30;65043;48.392;-4.472;2024-01-06T04:30:26;9.75;72.94
76239;SHT30;65043;48.392;-4.472;2024-01-06T04:32:52;9.77;72.74
76239;SHT30;65043;48.392;-4.472;2024-01-06T04:35:19;9.77;72.44
76239;SHT30;65043;48.392;-4.472;2024-01-06T04:37:45;9.80;72.36
76239;SHT30;65043;48.392;-4.472;2024-01-06T04:40:12;9.80;72.38
76239;SHT30;65043;48.392;-4.472;2024-01-06T04:42:38;9.81;72.56
76239;SHT30;65043;48.392;-4.472;2024-01-06T04:45:04;9.81;72.45
76239;SHT30;65043;48.392;-4.472;2024-01-06T04:47:30;9.81;72.28
76239;SHT30;65043;48.392;-4.472;2024-01-06T04:49:58;9.84;72.08
76239;SHT30;65043;48.392;-4.472;2024-01-06T04:52:23;9.85;72.19
76239;SHT30;65043;48.392;-4.472;2024-01-06T04:54:49;9.84;71.72
76239;SHT30;65043;48.392;-4.472;2024-01-06T04:57:17;9.87;71.94
76239;SHT30;65043;48.392;-4.472;2024-01-06T04:59:42;9.83;71.87
76239;SHT30;65043;48.392;-4.472;2024-01-06T05:02:08;9.84;71.99
76239;SHT30;65043;48.392;-4.472;2024-01-06T05:04:33;9.87;72.18
76239;SHT30;65043;48.392;-4.472;2024-01-06T05:06:59;9.85;72.04
76239;SHT30;65043;48.392;-4.472;2024-01-06T05:09:27;9.85;72.23
76239;SHT30;65043;48.392;-4.472;2024-01-06T05:11:52;9.81;72.24
76239;SHT30;65043;48.392;-4.472;2024-01-06T05:14:18;9.83;72.29
76239;SHT30;65043;48.392;-4.472;2024-01-06T05:16:43;9.85;72.44
76239;SHT30;65043;48.392;-4.472;2024-01-06T05:19:09;9.87;72.52
76239;SHT30;65043;48.392;-4.472;2024-01-06T05:21:34;9.88;72.61
76239;SHT30;65043;48.392;-4.472;2024-01-06T05:24:00;9.87;72.74
76239;SHT30;65043;48.392;-4.472;2024-01-06T05:26:26;9.85;72.78
76239;SHT30;65043;48.392;-4.472;2024-01-06T05:28:52;9.85;72.92
76239;SHT30;65043;48.392;-4.472;2024-01-06T05:31:17;9.85;72.95
76239;SHT30;65043;48.392;-4.472;2024-01-06T05:33:43;9.83;73.03
76239;SHT30;65043;48.392;-4.472;2024-01-06T05:36:09;9.84;73.14
76239;SHT30;65043;48.392;-4.472;2024-01-06T05:38:36;9.83;73.17
76239;SHT30;65043;48.392;-4.472;2024-01-06T05:41:01;9.81;73.31
76239;SHT30;65043;48.392;-4.472;2024-01-06T05:43:27;9.83;73.02
76239;SHT30;65043;48.392;-4.472;2024-01-06T05:45:53;9.81;73.27
76239;SHT30;65043;48.392;-4.472;2024-01-06T05:48:18;9.83;72.95
76239;SHT30;65043;48.392;-4.472;2024-01-06T05:50:43;9.81;72.70
76239;SHT30;65043;48.392;-4.472;2024-01-06T05:53:09;9.84;72.75
76239;SHT30;65043;48.392;-4.472;2024-01-06T05:55:35;9.84;72.67
76239;SHT30;65043;48.392;-4.472;2024-01-06T05:58:01;9.87;72.64
76239;SHT30;65043;48.392;-4.472;2024-01-06T06:00:26;9.85;72.29
76239;SHT30;65043;48.392;-4.472;2024-01-06T06:02:52;9.87;72.59
76239;SHT30;65043;48.392;-4.472;2024-01-06T06:05:18;9.85;72.47
76239;SHT30;65043;48.392;-4.472;2024-01-06T06:07:43;9.87;72.41
76239;SHT30;65043;48.392;-4.472;2024-01-06T06:10:10;9.88;72.36
76239;SHT30;65043;48.392;-4.472;2024-01-06T06:12:36;9.91;72.32
76239;SHT30;65043;48.392;-4.472;2024-01-06T06:15:03;9.91;72.27
76239;SHT30;65043;48.392;-4.472;2024-01-06T06:17:30;9.88;72.34
76239;SHT30;65043;48.392;-4.472;2024-01-06T06:19:56;9.88;71.94
76239;SHT30;65043;48.392;-4.472;2024-01-06T06:22:22;9.88;72.01
76239;SHT30;65043;48.392;-4.472;2024-01-06T06:24:48;9.88;72.16
76239;SHT30;65043;48.392;-4.472;2024-01-06T06:27:14;9.88;72.36
76239;SHT30;65043;48.392;-4.472;2024-01-06T06:29:41;9.84;72.03
76239;SHT30;65043;48.392;-4.472;2024-01-06T06:32:07;9.83;72.19
76239;SHT30;65043;48.392;-4.472;2024-01-06T06:34:33;9.83;72.32
76239;SHT30;65043;48.392;-4.472;2024-01-06T06:36:58;9.81;71.69
76239;SHT30;65043;48.392;-4.472;2024-01-06T06:39:24;9.83;72.17
76239;SHT30;65043;48.392;-4.472;2024-01-06T06:41:49;9.85;71.54
76239;SHT30;65043;48.392;-4.472;2024-01-06T06:44:15;9.81;71.09
76239;SHT30;65043;48.392;-4.472;2024-01-06T06:46:40;9.81;70.81
76239;SHT30;65043;48.392;-4.472;2024-01-06T06:49:06;9.83;71.06
76239;SHT30;65043;48.392;-4.472;2024-01-06T06:51:31;9.81;71.15
76239;SHT30;65043;48.392;-4.472;2024-01-06T06:53:57;9.87;71.19
76239;SHT30;65043;48.392;-4.472;2024-01-06T06:56:29;9.87;70.82
76239;SHT30;65043;48.392;-4.472;2024-01-06T06:58:55;9.85;70.46
76239;SHT30;65043;48.392;-4.472;2024-01-06T07:01:20;9.88;70.47
76239;SHT30;65043;48.392;-4.472;2024-01-06T07:03:46;9.84;70.60
76239;SHT30;65043;48.392;-4.472;2024-01-06T07:06:13;9.88;70.69
76239;SHT30;65043;48.392;-4.472;2024-01-06T07:08:39;9.88;70.77
76239;SHT30;65043;48.392;-4.472;2024-01-06T07:11:08;9.88;70.96
76239;SHT30;65043;48.392;-4.472;2024-01-06T07:13:33;9.87;70.61
76239;SHT30;65043;48.392;-4.472;2024-01-06T07:15:58;9.87;71.13
76239;SHT30;65043;48.392;-4.472;2024-01-06T07:18:24;9.90;70.99
76239;SHT30;65043;48.392;-4.472;2024-01-06T07:20:50;9.87;70.41
76239;SHT30;65043;48.392;-4.472;2024-01-06T07:23:16;9.87;70.59
76239;SHT30;65043;48.392;-4.472;2024-01-06T07:25:41;9.88;70.37
76239;SHT30;65043;48.392;-4.472;2024-01-06T07:28:07;9.85;70.19
76239;SHT30;65043;48.392;-4.472;2024-01-06T07:30:33;9.84;70.57
76239;SHT30;65043;48.392;-4.472;2024-01-06T07:32:59;9.85;70.22
76239;SHT30;65043;48.392;-4.472;2024-01-06T07:35:27;9.84;70.32
76239;SHT30;65043;48.392;-4.472;2024-01-06T07:37:54;9.84;70.72
76239;SHT30;65043;48.392;-4.472;2024-01-06T07:40:19;9.84;70.98
76239;SHT30;65043;48.392;-4.472;2024-01-06T07:42:45;9.85;71.02
76239;SHT30;65043;48.392;-4.472;2024-01-06T07:45:10;9.85;70.82
76239;SHT30;65043;48.392;-4.472;2024-01-06T07:47:36;9.84;71.09
76239;SHT30;65043;48.392;-4.472;2024-01-06T07:50:02;9.81;70.98
76239;SHT30;65043;48.392;-4.472;2024-01-06T07:52:30;9.85;70.91
76239;SHT30;65043;48.392;-4.472;2024-01-06T07:54:55;9.83;70.65
76239;SHT30;65043;48.392;-4.472;2024-01-06T07:57:21;9.83;70.88
76239;SHT30;65043;48.392;-4.472;2024-01-06T07:59:46;9.81;71.25
76239;SHT30;65043;48.392;-4.472;2024-01-06T08:02:12;9.81;70.90
76239;SHT30;65043;48.392;-4.472;2024-01-06T08:04:38;9.83;71.08
76239;SHT30;65043;48.392;-4.472;2024-01-06T08:07:03;9.84;70.96
76239;SHT30;65043;48.392;-4.472;2024-01-06T08:09:29;9.84;71.06
76239;SHT30;65043;48.392;-4.472;2024-01-06T08:11:54;9.85;71.10
76239;SHT30;65043;48.392;-4.472;2024-01-06T08:14:20;9.81;71.29
76239;SHT30;65043;48.392;-4.472;2024-01-06T08:16:46;9.87;71.38
76239;SHT30;65043;48.392;-4.472;2024-01-06T08:19:11;9.88;71.41
76239;SHT30;65043;48.392;-4.472;2024-01-06T08:21:37;9.93;71.55
76239;SHT30;65043;48.392;-4.472;2024-01-06T08:24:02;9.93;71.31
76239;SHT30;65043;48.392;-4.472;2024-01-06T08:26:28;9.91;71.18
76239;SHT30;65043;48.392;-4.472;2024-01-06T08:28:54;9.93;71.02
76239;SHT30;65043;48.392;-4.472;2024-01-06T08:31:19;9.88;71.06
76239;SHT30;65043;48.392;-4.472;2024-01-06T08:33:45;9.88;71.02
76239;SHT30;65043;48.392;-4.472;2024-01-06T08:36:11;9.85;71.05
76239;SHT30;65043;48.392;-4.472;2024-01-06T08:38:36;9.84;71.08
76239;SHT30;65043;48.392;-4.472;2024-01-06T08:41:02;9.87;70.96
76239;SHT30;65043;48.392;-4.472;2024-01-06T08:43:27;9.88;71.12
76239;SHT30;65043;48.392;-4.472;2024-01-06T08:45:53;9.87;71.11
76239;SHT30;65043;48.392;-4.472;2024-01-06T08:48:18;9.88;71.44
76239;SHT30;65043;48.392;-4.472;2024-01-06T08:50:44;9.90;71.47
76239;SHT30;65043;48.392;-4.472;2024-01-06T08:53:11;9.88;71.44
76239;SHT30;65043;48.392;-4.472;2024-01-06T08:55:36;9.91;71.40
76239;SHT30;65043;48.392;-4.472;2024-01-06T08:58:02;9.93;71.57
76239;SHT30;65043;48.392;-4.472;2024-01-06T09:00:27;9.93;71.82
76239;SHT30;65043;48.392;-4.472;2024-01-06T09:02:53;9.91;71.69
76239;SHT30;65043;48.392;-4.472;2024-01-06T09:05:18;9.90;71.67
76239;SHT30;65043;48.392;-4.472;2024-01-06T09:07:44;9.91;71.56
76239;SHT30;65043;48.392;-4.472;2024-01-06T09:10:14;9.90;71.83
76239;SHT30;65043;48.392;-4.472;2024-01-06T09:12:39;9.90;72.00
76239;SHT30;65043;48.392;-4.472;2024-01-06T09:15:05;9.87;72.31
76239;SHT30;65043;48.392;-4.472;2024-01-06T09:17:32;9.84;72.45
76239;SHT30;65043;48.392;-4.472;2024-01-06T09:19:59;9.84;72.49
76239;SHT30;65043;48.392;-4.472;2024-01-06T09:22:27;9.83;72.40
76239;SHT30;65043;48.392;-4.472;2024-01-06T09:24:53;9.88;72.56
76239;SHT30;65043;48.392;-4.472;2024-01-06T09:27:19;9.88;72.80
76239;SHT30;65043;48.392;-4.472;2024-01-06T09:29:45;9.90;72.80
76239;SHT30;65043;48.392;-4.472;2024-01-06T09:32:10;9.93;72.99
76239;SHT30;65043;48.392;-4.472;2024-01-06T09:34:36;9.94;72.69
76239;SHT30;65043;48.392;-4.472;2024-01-06T09:37:02;9.94;72.51
76239;SHT30;65043;48.392;-4.472;2024-01-06T09:39:28;9.98;72.26
76239;SHT30;65043;48.392;-4.472;2024-01-06T09:41:54;9.99;72.21
76239;SHT30;65043;48.392;-4.472;2024-01-06T09:44:19;10.04;72.41
76239;SHT30;65043;48.392;-4.472;2024-01-06T09:46:45;10.04;72.03
76239;SHT30;65043;48.392;-4.472;2024-01-06T09:49:11;10.06;72.07
76239;SHT30;65043;48.392;-4.472;2024-01-06T09:51:39;10.09;71.79
76239;SHT30;65043;48.392;-4.472;2024-01-06T09:54:08;10.11;71.70
76239;SHT30;65043;48.392;-4.472;2024-01-06T09:56:36;10.16;71.84
76239;SHT30;65043;48.392;-4.472;2024-01-06T09:59:03;10.21;71.92
76239;SHT30;65043;48.392;-4.472;2024-01-06T10:01:29;10.25;71.91
76239;SHT30;65043;48.392;-4.472;2024-01-06T10:03:54;10.26;71.48
76239;SHT30;65043;48.392;-4.472;2024-01-06T10:06:20;10.31;71.02
76239;SHT30;65043;48.392;-4.472;2024-01-06T10:08:50;10.34;71.13
76239;SHT30;65043;48.392;-4.472;2024-01-06T10:11:16;10.38;71.00
76239;SHT30;65043;48.392;-4.472;2024-01-06T10:13:41;10.36;70.85
76239;SHT30;65043;48.392;-4.472;2024-01-06T10:16:07;10.36;70.86
76239;SHT30;65043;48.392;-4.472;2024-01-06T10:18:33;10.36;70.83
76239;SHT30;65043;48.392;-4.472;2024-01-06T10:21:05;10.36;71.10
76239;SHT30;65043;48.392;-4.472;2024-01-06T10:23:31;10.32;71.29
76239;SHT30;65043;48.392;-4.472;2024-01-06T10:25:57;10.34;71.77
76239;SHT30;65043;48.392;-4.472;2024-01-06T10:28:23;10.34;72.10
76239;SHT30;65043;48.392;-4.472;2024-01-06T10:30:51;10.34;72.16
76239;SHT30;65043;48.392;-4.472;2024-01-06T10:33:19;10.35;72.60
76239;SHT30;65043;48.392;-4.472;2024-01-06T10:35:44;10.31;72.33
76239;SHT30;65043;48.392;-4.472;2024-01-06T10:38:11;10.32;72.83
76239;SHT30;65043;48.392;-4.472;2024-01-06T10:40:36;10.32;72.99
76239;SHT30;65043;48.392;-4.472;2024-01-06T10:43:03;10.31;72.97
76239;SHT30;65043;48.392;-4.472;2024-01-06T10:45:29;10.29;73.49
76239;SHT30;65043;48.392;-4.472;2024-01-06T10:47:57;10.31;73.44
76239;SHT30;65043;48.392;-4.472;2024-01-06T10:50:26;10.31;72.97
76239;SHT30;65043;48.392;-4.472;2024-01-06T10:52:53;10.34;72.81
76239;SHT30;65043;48.392;-4.472;2024-01-06T10:55:18;10.39;72.97
76239;SHT30;65043;48.392;-4.472;2024-01-06T10:57:46;10.46;73.02
76239;SHT30;65043;48.392;-4.472;2024-01-06T11:00:12;10.46;73.14
76239;SHT30;65043;48.392;-4.472;2024-01-06T11:02:39;10.52;72.81
76239;SHT30;65043;48.392;-4.472;2024-01-06T11:05:05;10.46;72.34
76239;SHT30;65043;48.392;-4.472;2024-01-06T11:07:33;10.45;72.79
76239;SHT30;65043;48.392;-4.472;2024-01-06T11:12:25;10.45;72.42
76239;SHT30;65043;48.392;-4.472;2024-01-06T11:14:51;10.45;71.90
76239;SHT30;65043;48.392;-4.472;2024-01-06T11:17:53;10.39;72.03
76239;SHT30;65043;48.392;-4.472;2024-01-06T11:20:19;10.35;70.59
76239;SHT30;65043;48.392;-4.472;2024-01-06T11:22:49;10.34;71.02
76239;SHT30;65043;48.392;-4.472;2024-01-06T11:25:17;10.31;71.68
76239;SHT30;65043;48.392;-4.472;2024-01-06T11:27:44;10.29;71.34
76239;SHT30;65043;48.392;-4.472;2024-01-06T11:30:23;10.31;71.77
76239;SHT30;65043;48.392;-4.472;2024-01-06T11:32:51;10.34;72.15
76239;SHT30;65043;48.392;-4.472;2024-01-06T11:35:18;10.29;72.38
76239;SHT30;65043;48.392;-4.472;2024-01-06T11:42:47;10.26;71.55
76239;SHT30;65043;48.392;-4.472;2024-01-06T11:45:13;10.25;71.37
76239;SHT30;65043;48.392;-4.472;2024-01-06T11:47:39;10.22;71.87
76239;SHT30;65043;48.392;-4.472;2024-01-06T11:50:06;10.22;71.65
76239;SHT30;65043;48.392;-4.472;2024-01-06T11:52:32;10.22;71.70
76239;SHT30;65043;48.392;-4.472;2024-01-06T11:54:59;10.22;72.03
76239;SHT30;65043;48.392;-4.472;2024-01-06T11:57:26;10.24;72.41
76239;SHT30;65043;48.392;-4.472;2024-01-06T11:59:52;10.28;72.59
76239;SHT30;65043;48.392;-4.472;2024-01-06T12:02:18;10.32;72.45
76239;SHT30;65043;48.392;-4.472;2024-01-06T12:04:53;10.28;72.76
76239;SHT30;65043;48.392;-4.472;2024-01-06T12:07:20;10.28;72.29
76239;SHT30;65043;48.392;-4.472;2024-01-06T12:09:48;10.28;72.12
76239;SHT30;65043;48.392;-4.472;2024-01-06T12:12:17;10.26;72.57
76239;SHT30;65043;48.392;-4.472;2024-01-06T12:14:43;10.26;73.11
76239;SHT30;65043;48.392;-4.472;2024-01-06T12:17:09;10.24;73.71
76239;SHT30;65043;48.392;-4.472;2024-01-06T12:19:35;10.26;73.30
76239;SHT30;65043;48.392;-4.472;2024-01-06T12:22:01;10.26;73.73
76239;SHT30;65043;48.392;-4.472;2024-01-06T12:24:27;10.28;73.94
76239;SHT30;65043;48.392;-4.472;2024-01-06T12:26:55;10.29;74.16
76239;SHT30;65043;48.392;-4.472;2024-01-06T12:29:21;10.34;74.19
76239;SHT30;65043;48.392;-4.472;2024-01-06T12:31:46;10.38;74.24
76239;SHT30;65043;48.392;-4.472;2024-01-06T12:34:12;10.43;74.10
76239;SHT30;65043;48.392;-4.472;2024-01-06T12:36:39;10.46;74.18
76239;SHT30;65043;48.392;-4.472;2024-01-06T12:39:10;10.48;74.08
76239;SHT30;65043;48.392;-4.472;2024-01-06T12:41:40;10.52;73.74
76239;SHT30;65043;48.392;-4.472;2024-01-06T12:44:06;10.55;73.62
76239;SHT30;65043;48.392;-4.472;2024-01-06T12:46:33;10.57;73.83
76239;SHT30;65043;48.392;-4.472;2024-01-06T12:48:58;10.62;73.25
76239;SHT30;65043;48.392;-4.472;2024-01-06T12:51:24;10.72;71.79
76239;SHT30;65043;48.392;-4.472;2024-01-06T12:53:49;10.70;70.47
76239;SHT30;65043;48.392;-4.472;2024-01-06T12:56:15;10.72;70.44
76239;SHT30;65043;48.392;-4.472;2024-01-06T12:58:41;10.76;70.76
76239;SHT30;65043;48.392;-4.472;2024-01-06T13:01:07;10.79;70.78
76239;SHT30;65043;48.392;-4.472;2024-01-06T13:03:33;10.83;70.81
76239;SHT30;65043;48.392;-4.472;2024-01-06T13:05:59;10.86;70.93
76239;SHT30;65043;48.392;-4.472;2024-01-06T13:08:25;10.90;71.31
76239;SHT30;65043;48.392;-4.472;2024-01-06T13:10:51;10.94;71.45
76239;SHT30;65043;48.392;-4.472;2024-01-06T13:13:17;11.01;71.65
76239;SHT30;65043;48.392;-4.472;2024-01-06T13:15:42;11.01;71.49
76239;SHT30;65043;48.392;-4.472;2024-01-06T13:18:08;11.06;71.48
76239;SHT30;65043;48.392;-4.472;2024-01-06T13:20:33;11.06;71.68
76239;SHT30;65043;48.392;-4.472;2024-01-06T13:22:59;11.07;71.75
76239;SHT30;65043;48.392;-4.472;2024-01-06T13:25:24;11.03;71.72
76239;SHT30;65043;48.392;-4.472;2024-01-06T13:27:50;11.04;71.69
76239;SHT30;65043;48.392;-4.472;2024-01-06T13:30:16;11.11;71.57
76239;SHT30;65043;48.392;-4.472;2024-01-06T13:32:42;11.23;71.31
76239;SHT30;65043;48.392;-4.472;2024-01-06T13:35:08;11.36;71.09
76239;SHT30;65043;48.392;-4.472;2024-01-06T13:37:36;11.48;70.21
76239;SHT30;65043;48.392;-4.472;2024-01-06T13:40:02;11.58;70.11
76239;SHT30;65043;48.392;-4.472;2024-01-06T13:42:28;11.62;69.86
76239;SHT30;65043;48.392;-4.472;2024-01-06T13:44:53;11.61;69.35
76239;SHT30;65043;48.392;-4.472;2024-01-06T13:47:19;11.54;69.34
76239;SHT30;65043;48.392;-4.472;2024-01-06T13:49:45;11.51;69.06
76239;SHT30;65043;48.392;-4.472;2024-01-06T13:52:10;11.52;69.16
76239;SHT30;65043;48.392;-4.472;2024-01-06T13:54:36;11.61;68.71
76239;SHT30;65043;48.392;-4.472;2024-01-06T13:57:02;11.68;68.26
76239;SHT30;65043;48.392;-4.472;2024-01-06T13:59:28;11.62;67.87
76239;SHT30;65043;48.392;-4.472;2024-01-06T14:01:53;11.54;68.10
76239;SHT30;65043;48.392;-4.472;2024-01-06T14:04:19;11.50;68.53
76239;SHT30;65043;48.392;-4.472;2024-01-06T14:06:45;11.48;68.56
76239;SHT30;65043;48.392;-4.472;2024-01-06T14:09:13;11.54;68.48
76239;SHT30;65043;48.392;-4.472;2024-01-06T14:11:38;11.59;68.56
76239;SHT30;65043;48.392;-4.472;2024-01-06T14:14:04;11.65;68.82
76239;SHT30;65043;48.392;-4.472;2024-01-06T14:16:30;11.73;68.76
76239;SHT30;65043;48.392;-4.472;2024-01-06T14:18:56;11.79;68.35
76239;SHT30;65043;48.392;-4.472;2024-01-06T14:21:21;11.83;68.76
76239;SHT30;65043;48.392;-4.472;2024-01-06T14:23:47;11.89;68.09
76239;SHT30;65043;48.392;-4.472;2024-01-06T14:26:19;11.93;67.48
76239;SHT30;65043;48.392;-4.472;2024-01-06T14:28:48;11.99;66.89
76239;SHT30;65043;48.392;-4.472;2024-01-06T14:31:14;11.96;66.22
76239;SHT30;65043;48.392;-4.472;2024-01-06T14:33:39;12.03;67.01
76239;SHT30;65043;48.392;-4.472;2024-01-06T14:36:06;12.07;66.49
76239;SHT30;65043;48.392;-4.472;2024-01-06T14:38:31;12.09;65.99
76239;SHT30;65043;48.392;-4.472;2024-01-06T14:40:57;12.06;66.29
76239;SHT30;65043;48.392;-4.472;2024-01-06T14:43:22;12.13;66.36
76239;SHT30;65043;48.392;-4.472;2024-01-06T14:45:50;12.10;65.36
76239;SHT30;65043;48.392;-4.472;2024-01-06T14:48:15;12.07;65.98
76239;SHT30;65043;48.392;-4.472;2024-01-06T14:50:41;12.07;65.16
76239;SHT30;65043;48.392;-4.472;2024-01-06T14:53:07;12.09;66.04
76239;SHT30;65043;48.392;-4.472;2024-01-06T14:55:32;12.09;66.23
76239;SHT30;65043;48.392;-4.472;2024-01-06T14:57:58;12.13;66.53
76239;SHT30;65043;48.392;-4.472;2024-01-06T15:00:23;12.13;66.11
76239;SHT30;65043;48.392;-4.472;2024-01-06T15:02:50;12.12;66.23
76239;SHT30;65043;48.392;-4.472;2024-01-06T15:05:18;12.13;66.71
76239;SHT30;65043;48.392;-4.472;2024-01-06T15:07:43;12.17;66.60
76239;SHT30;65043;48.392;-4.472;2024-01-06T15:10:09;12.17;66.81
76239;SHT30;65043;48.392;-4.472;2024-01-06T15:12:35;12.17;66.26
76239;SHT30;65043;48.392;-4.472;2024-01-06T15:15:01;12.19;65.92
76239;SHT30;65043;48.392;-4.472;2024-01-06T15:17:26;12.20;65.96
76239;SHT30;65043;48.392;-4.472;2024-01-06T15:19:52;12.22;65.96
76239;SHT30;65043;48.392;-4.472;2024-01-06T15:22:18;12.16;65.00
76239;SHT30;65043;48.392;-4.472;2024-01-06T15:24:43;12.07;64.94